sensor_id;sensor_type;location;lat;lon;timestamp;P1;durP1;ratioP1;P2;durP2;ratioP2
13083;SDS011;6608;48.790;9.198;2022-07-29T00:00:55;175.53;;;72.37;;
13083;SDS011;6608;48.790;9.198;2022-07-29T00:03:21;176.77;;;72.43;;
13083;SDS011;6608;48.790;9.198;2022-07-29T00:05:48;174.43;;;71.43;;
13083;SDS011;6608;48.790;9.198;2022-07-29T00:08:14;176.40;;;72.43;;
13083;SDS011;6608;48.790;9.198;2022-07-29T00:10:41;176.67;;;72.80;;
13083;SDS011;6608;48.790;9.198;2022-07-29T00:13:08;177.00;;;72.83;;
13083;SDS011;6608;48.790;9.198;2022-07-29T00:15:36;177.47;;;73.10;;
13083;SDS011;6608;48.790;9.198;2022-07-29T00:18:02;180.50;;;72.77;;
13083;SDS011;6608;48.790;9.198;2022-07-29T00:20:29;175.97;;;72.17;;
13083;SDS011;6608;48.790;9.198;2022-07-29T00:22:55;174.90;;;71.63;;
13083;SDS011;6608;48.790;9.198;2022-07-29T00:25:22;175.67;;;72.17;;
13083;SDS011;6608;48.790;9.198;2022-07-29T00:27:48;177.37;;;72.03;;
13083;SDS011;6608;48.790;9.198;2022-07-29T00:30:15;180.07;;;72.80;;
13083;SDS011;6608;48.790;9.198;2022-07-29T00:32:43;176.10;;;71.97;;
13083;SDS011;6608;48.790;9.198;2022-07-29T00:35:09;176.27;;;71.60;;
13083;SDS011;6608;48.790;9.198;2022-07-29T00:37:53;175.93;;;71.83;;
13083;SDS011;6608;48.790;9.198;2022-07-29T00:40:19;176.90;;;72.07;;
13083;SDS011;6608;48.790;9.198;2022-07-29T00:42:47;178.27;;;71.97;;
13083;SDS011;6608;48.790;9.198;2022-07-29T00:45:14;176.37;;;71.67;;
13083;SDS011;6608;48.790;9.198;2022-07-29T00:47:41;175.37;;;71.67;;
13083;SDS011;6608;48.790;9.198;2022-07-29T00:50:09;177.27;;;72.47;;
13083;SDS011;6608;48.790;9.198;2022-07-29T00:52:36;174.50;;;71.67;;
13083;SDS011;6608;48.790;9.198;2022-07-29T00:55:04;174.63;;;71.57;;
13083;SDS011;6608;48.790;9.198;2022-07-29T00:57:31;173.40;;;71.07;;
13083;SDS011;6608;48.790;9.198;2022-07-29T00:59:57;175.47;;;71.63;;
13083;SDS011;6608;48.790;9.198;2022-07-29T01:02:24;173.30;;;71.47;;
13083;SDS011;6608;48.790;9.198;2022-07-29T01:04:50;176.17;;;70.63;;
13083;SDS011;6608;48.790;9.198;2022-07-29T01:07:18;175.40;;;71.50;;
13083;SDS011;6608;48.790;9.198;2022-07-29T01:09:45;173.20;;;71.17;;
13083;SDS011;6608;48.790;9.198;2022-07-29T01:12:12;178.10;;;71.57;;
13083;SDS011;6608;48.790;9.198;2022-07-29T01:14:39;179.07;;;71.63;;
13083;SDS011;6608;48.790;9.198;2022-07-29T01:17:06;174.23;;;71.73;;
13083;SDS011;6608;48.790;9.198;2022-07-29T01:19:43;179.60;;;71.70;;
13083;SDS011;6608;48.790;9.198;2022-07-29T01:22:15;174.03;;;70.73;;
13083;SDS011;6608;48.790;9.198;2022-07-29T01:24:55;176.10;;;71.30;;
13083;SDS011;6608;48.790;9.198;2022-07-29T01:27:29;174.90;;;72.17;;
13083;SDS011;6608;48.790;9.198;2022-07-29T01:30:00;177.13;;;72.00;;
13083;SDS011;6608;48.790;9.198;2022-07-29T01:32:29;174.30;;;71.57;;
13083;SDS011;6608;48.790;9.198;2022-07-29T01:34:56;174.70;;;71.13;;
13083;SDS011;6608;48.790;9.198;2022-07-29T01:37:26;174.67;;;71.23;;
13083;SDS011;6608;48.790;9.198;2022-07-29T01:39:55;172.30;;;70.40;;
13083;SDS011;6608;48.790;9.198;2022-07-29T01:42:23;174.00;;;71.17;;
13083;SDS011;6608;48.790;9.198;2022-07-29T01:44:54;172.83;;;70.43;;
13083;SDS011;6608;48.790;9.198;2022-07-29T01:47:25;178.87;;;71.77;;
13083;SDS011;6608;48.790;9.198;2022-07-29T01:49:52;174.53;;;70.97;;
13083;SDS011;6608;48.790;9.198;2022-07-29T01:52:21;178.87;;;71.00;;
13083;SDS011;6608;48.790;9.198;2022-07-29T01:54:51;173.00;;;70.97;;
13083;SDS011;6608;48.790;9.198;2022-07-29T01:57:19;171.80;;;70.30;;
13083;SDS011;6608;48.790;9.198;2022-07-29T01:59:47;171.73;;;70.00;;
13083;SDS011;6608;48.790;9.198;2022-07-29T02:02:15;173.23;;;70.20;;
13083;SDS011;6608;48.790;9.198;2022-07-29T02:04:44;172.60;;;69.53;;
13083;SDS011;6608;48.790;9.198;2022-07-29T02:07:13;176.30;;;70.27;;
13083;SDS011;6608;48.790;9.198;2022-07-29T02:09:41;172.53;;;69.37;;
13083;SDS011;6608;48.790;9.198;2022-07-29T02:12:08;172.33;;;69.50;;
13083;SDS011;6608;48.790;9.198;2022-07-29T02:14:37;173.80;;;70.27;;
13083;SDS011;6608;48.790;9.198;2022-07-29T02:17:03;172.00;;;69.97;;
13083;SDS011;6608;48.790;9.198;2022-07-29T02:19:30;172.17;;;70.07;;
13083;SDS011;6608;48.790;9.198;2022-07-29T02:21:59;171.20;;;69.70;;
13083;SDS011;6608;48.790;9.198;2022-07-29T02:24:26;175.63;;;70.23;;
13083;SDS011;6608;48.790;9.198;2022-07-29T02:26:54;173.80;;;70.53;;
13083;SDS011;6608;48.790;9.198;2022-07-29T02:29:22;174.00;;;71.37;;
13083;SDS011;6608;48.790;9.198;2022-07-29T02:31:49;179.40;;;70.53;;
13083;SDS011;6608;48.790;9.198;2022-07-29T02:34:17;176.73;;;71.10;;
13083;SDS011;6608;48.790;9.198;2022-07-29T02:36:44;175.63;;;69.63;;
13083;SDS011;6608;48.790;9.198;2022-07-29T02:39:13;173.07;;;70.23;;
13083;SDS011;6608;48.790;9.198;2022-07-29T02:41:41;171.77;;;69.97;;
13083;SDS011;6608;48.790;9.198;2022-07-29T02:44:09;172.37;;;69.43;;
13083;SDS011;6608;48.790;9.198;2022-07-29T02:46:36;171.27;;;70.20;;
13083;SDS011;6608;48.790;9.198;2022-07-29T02:49:05;171.50;;;69.77;;
13083;SDS011;6608;48.790;9.198;2022-07-29T02:51:33;173.27;;;69.67;;
13083;SDS011;6608;48.790;9.198;2022-07-29T02:54:02;174.10;;;70.63;;
13083;SDS011;6608;48.790;9.198;2022-07-29T02:56:32;175.17;;;70.30;;
13083;SDS011;6608;48.790;9.198;2022-07-29T02:59:01;172.93;;;71.33;;
13083;SDS011;6608;48.790;9.198;2022-07-29T03:01:30;174.30;;;70.93;;
13083;SDS011;6608;48.790;9.198;2022-07-29T03:03:57;173.33;;;70.27;;
13083;SDS011;6608;48.790;9.198;2022-07-29T03:06:26;172.97;;;70.43;;
13083;SDS011;6608;48.790;9.198;2022-07-29T03:08:53;178.90;;;71.17;;
13083;SDS011;6608;48.790;9.198;2022-07-29T03:11:20;172.43;;;70.33;;
13083;SDS011;6608;48.790;9.198;2022-07-29T03:13:48;172.93;;;69.90;;
13083;SDS011;6608;48.790;9.198;2022-07-29T03:16:14;176.17;;;70.67;;
13083;SDS011;6608;48.790;9.198;2022-07-29T03:18:41;177.67;;;71.37;;
13083;SDS011;6608;48.790;9.198;2022-07-29T03:21:08;172.60;;;70.10;;
13083;SDS011;6608;48.790;9.198;2022-07-29T03:23:34;173.57;;;70.17;;
13083;SDS011;6608;48.790;9.198;2022-07-29T03:26:01;170.33;;;69.07;;
13083;SDS011;6608;48.790;9.198;2022-07-29T03:28:27;173.77;;;69.97;;
13083;SDS011;6608;48.790;9.198;2022-07-29T03:30:55;173.67;;;69.97;;
13083;SDS011;6608;48.790;9.198;2022-07-29T03:33:21;172.03;;;69.57;;
13083;SDS011;6608;48.790;9.198;2022-07-29T03:35:48;173.67;;;70.17;;
13083;SDS011;6608;48.790;9.198;2022-07-29T03:38:14;178.37;;;70.63;;
13083;SDS011;6608;48.790;9.198;2022-07-29T03:40:42;174.37;;;70.13;;
13083;SDS011;6608;48.790;9.198;2022-07-29T03:43:10;173.00;;;70.30;;
13083;SDS011;6608;48.790;9.198;2022-07-29T03:45:37;176.77;;;70.30;;
13083;SDS011;6608;48.790;9.198;2022-07-29T03:48:07;172.77;;;70.00;;
13083;SDS011;6608;48.790;9.198;2022-07-29T03:50:34;173.20;;;69.77;;
13083;SDS011;6608;48.790;9.198;2022-07-29T03:53:00;171.87;;;70.70;;
13083;SDS011;6608;48.790;9.198;2022-07-29T03:55:28;172.47;;;70.23;;
13083;SDS011;6608;48.790;9.198;2022-07-29T03:57:55;173.00;;;69.23;;
13083;SDS011;6608;48.790;9.198;2022-07-29T04:00:22;171.40;;;69.40;;
13083;SDS011;6608;48.790;9.198;2022-07-29T04:02:49;171.33;;;69.63;;
13083;SDS011;6608;48.790;9.198;2022-07-29T04:05:18;172.30;;;69.97;;
13083;SDS011;6608;48.790;9.198;2022-07-29T04:07:44;173.83;;;70.93;;
13083;SDS011;6608;48.790;9.198;2022-07-29T04:10:11;172.13;;;70.33;;
13083;SDS011;6608;48.790;9.198;2022-07-29T04:12:37;173.73;;;70.90;;
13083;SDS011;6608;48.790;9.198;2022-07-29T04:15:04;173.17;;;70.30;;
13083;SDS011;6608;48.790;9.198;2022-07-29T04:17:31;171.33;;;69.43;;
13083;SDS011;6608;48.790;9.198;2022-07-29T04:19:57;170.67;;;68.97;;
13083;SDS011;6608;48.790;9.198;2022-07-29T04:22:25;171.17;;;69.37;;
13083;SDS011;6608;48.790;9.198;2022-07-29T04:24:51;173.67;;;70.53;;
13083;SDS011;6608;48.790;9.198;2022-07-29T04:27:18;171.90;;;69.50;;
13083;SDS011;6608;48.790;9.198;2022-07-29T04:29:44;172.37;;;70.40;;
13083;SDS011;6608;48.790;9.198;2022-07-29T04:32:11;170.97;;;68.60;;
13083;SDS011;6608;48.790;9.198;2022-07-29T04:34:37;173.03;;;69.63;;
13083;SDS011;6608;48.790;9.198;2022-07-29T04:37:03;172.67;;;69.53;;
13083;SDS011;6608;48.790;9.198;2022-07-29T04:39:31;170.30;;;69.30;;
13083;SDS011;6608;48.790;9.198;2022-07-29T04:41:57;168.87;;;68.27;;
13083;SDS011;6608;48.790;9.198;2022-07-29T04:44:24;176.37;;;70.03;;
13083;SDS011;6608;48.790;9.198;2022-07-29T04:46:50;169.80;;;68.50;;
13083;SDS011;6608;48.790;9.198;2022-07-29T04:49:17;169.00;;;68.47;;
13083;SDS011;6608;48.790;9.198;2022-07-29T04:51:43;169.93;;;69.57;;
13083;SDS011;6608;48.790;9.198;2022-07-29T04:54:10;169.63;;;68.97;;
13083;SDS011;6608;48.790;9.198;2022-07-29T04:56:37;172.13;;;69.70;;
13083;SDS011;6608;48.790;9.198;2022-07-29T04:59:04;172.63;;;69.53;;
13083;SDS011;6608;48.790;9.198;2022-07-29T05:01:30;169.83;;;68.83;;
13083;SDS011;6608;48.790;9.198;2022-07-29T05:03:57;172.13;;;69.17;;
13083;SDS011;6608;48.790;9.198;2022-07-29T05:06:23;172.43;;;69.87;;
13083;SDS011;6608;48.790;9.198;2022-07-29T05:08:49;169.30;;;68.60;;
13083;SDS011;6608;48.790;9.198;2022-07-29T05:11:16;171.73;;;69.50;;
13083;SDS011;6608;48.790;9.198;2022-07-29T05:13:43;170.90;;;69.63;;
13083;SDS011;6608;48.790;9.198;2022-07-29T05:16:10;172.47;;;69.70;;
13083;SDS011;6608;48.790;9.198;2022-07-29T05:18:36;170.93;;;69.50;;
13083;SDS011;6608;48.790;9.198;2022-07-29T05:21:03;175.90;;;69.77;;
13083;SDS011;6608;48.790;9.198;2022-07-29T05:23:29;173.53;;;69.67;;
13083;SDS011;6608;48.790;9.198;2022-07-29T05:25:56;173.17;;;70.43;;
13083;SDS011;6608;48.790;9.198;2022-07-29T05:28:22;173.60;;;71.03;;
13083;SDS011;6608;48.790;9.198;2022-07-29T05:30:50;168.77;;;69.17;;
13083;SDS011;6608;48.790;9.198;2022-07-29T05:33:16;172.43;;;70.60;;
13083;SDS011;6608;48.790;9.198;2022-07-29T05:35:43;170.80;;;68.93;;
13083;SDS011;6608;48.790;9.198;2022-07-29T05:38:09;170.03;;;69.33;;
13083;SDS011;6608;48.790;9.198;2022-07-29T05:40:35;175.47;;;69.23;;
13083;SDS011;6608;48.790;9.198;2022-07-29T05:43:02;170.87;;;68.47;;
13083;SDS011;6608;48.790;9.198;2022-07-29T05:45:28;170.13;;;70.13;;
13083;SDS011;6608;48.790;9.198;2022-07-29T05:47:56;170.43;;;68.63;;
13083;SDS011;6608;48.790;9.198;2022-07-29T05:50:22;172.47;;;68.80;;
13083;SDS011;6608;48.790;9.198;2022-07-29T05:52:49;173.77;;;69.27;;
13083;SDS011;6608;48.790;9.198;2022-07-29T05:55:16;171.50;;;70.50;;
13083;SDS011;6608;48.790;9.198;2022-07-29T05:57:42;174.20;;;68.90;;
13083;SDS011;6608;48.790;9.198;2022-07-29T06:00:10;169.80;;;69.80;;
13083;SDS011;6608;48.790;9.198;2022-07-29T06:02:37;171.13;;;70.37;;
13083;SDS011;6608;48.790;9.198;2022-07-29T06:05:05;171.23;;;70.53;;
13083;SDS011;6608;48.790;9.198;2022-07-29T06:07:32;170.47;;;69.47;;
13083;SDS011;6608;48.790;9.198;2022-07-29T06:09:59;171.70;;;69.43;;
13083;SDS011;6608;48.790;9.198;2022-07-29T06:12:25;172.27;;;71.57;;
13083;SDS011;6608;48.790;9.198;2022-07-29T06:14:51;171.47;;;70.03;;
13083;SDS011;6608;48.790;9.198;2022-07-29T06:17:18;171.70;;;69.83;;
13083;SDS011;6608;48.790;9.198;2022-07-29T06:19:44;171.93;;;70.80;;
13083;SDS011;6608;48.790;9.198;2022-07-29T06:22:14;173.53;;;71.43;;
13083;SDS011;6608;48.790;9.198;2022-07-29T06:24:40;174.90;;;71.23;;
13083;SDS011;6608;48.790;9.198;2022-07-29T06:27:08;175.70;;;71.70;;
13083;SDS011;6608;48.790;9.198;2022-07-29T06:29:35;176.90;;;73.63;;
13083;SDS011;6608;48.790;9.198;2022-07-29T06:32:01;172.97;;;71.47;;
13083;SDS011;6608;48.790;9.198;2022-07-29T06:34:28;175.03;;;72.90;;
13083;SDS011;6608;48.790;9.198;2022-07-29T06:36:54;173.30;;;71.70;;
13083;SDS011;6608;48.790;9.198;2022-07-29T06:39:22;174.40;;;71.90;;
13083;SDS011;6608;48.790;9.198;2022-07-29T06:41:49;173.27;;;72.37;;
13083;SDS011;6608;48.790;9.198;2022-07-29T06:44:15;173.83;;;72.90;;
13083;SDS011;6608;48.790;9.198;2022-07-29T06:46:42;175.33;;;72.03;;
13083;SDS011;6608;48.790;9.198;2022-07-29T06:49:09;175.50;;;72.33;;
13083;SDS011;6608;48.790;9.198;2022-07-29T06:51:35;173.77;;;72.17;;
13083;SDS011;6608;48.790;9.198;2022-07-29T06:54:02;173.80;;;71.67;;
13083;SDS011;6608;48.790;9.198;2022-07-29T06:56:32;173.10;;;73.23;;
13083;SDS011;6608;48.790;9.198;2022-07-29T06:58:59;175.37;;;72.80;;
13083;SDS011;6608;48.790;9.198;2022-07-29T07:01:26;173.50;;;72.47;;
13083;SDS011;6608;48.790;9.198;2022-07-29T07:03:52;175.13;;;73.53;;
13083;SDS011;6608;48.790;9.198;2022-07-29T07:06:19;174.67;;;73.50;;
13083;SDS011;6608;48.790;9.198;2022-07-29T07:08:45;175.37;;;73.70;;
13083;SDS011;6608;48.790;9.198;2022-07-29T07:11:11;176.20;;;72.83;;
13083;SDS011;6608;48.790;9.198;2022-07-29T07:13:39;174.50;;;72.73;;
13083;SDS011;6608;48.790;9.198;2022-07-29T07:16:06;174.73;;;71.87;;
13083;SDS011;6608;48.790;9.198;2022-07-29T07:18:32;175.17;;;73.37;;
13083;SDS011;6608;48.790;9.198;2022-07-29T07:20:59;173.13;;;72.83;;
13083;SDS011;6608;48.790;9.198;2022-07-29T07:23:25;174.27;;;73.90;;
13083;SDS011;6608;48.790;9.198;2022-07-29T07:25:51;176.10;;;74.80;;
13083;SDS011;6608;48.790;9.198;2022-07-29T07:28:18;175.87;;;74.67;;
13083;SDS011;6608;48.790;9.198;2022-07-29T07:30:46;177.10;;;74.37;;
13083;SDS011;6608;48.790;9.198;2022-07-29T07:33:12;176.00;;;75.50;;
13083;SDS011;6608;48.790;9.198;2022-07-29T07:35:39;177.47;;;74.60;;
13083;SDS011;6608;48.790;9.198;2022-07-29T07:38:05;174.27;;;73.53;;
13083;SDS011;6608;48.790;9.198;2022-07-29T07:40:51;173.50;;;72.90;;
13083;SDS011;6608;48.790;9.198;2022-07-29T07:43:17;177.50;;;73.17;;
13083;SDS011;6608;48.790;9.198;2022-07-29T07:45:44;177.03;;;74.33;;
13083;SDS011;6608;48.790;9.198;2022-07-29T07:48:11;188.23;;;81.13;;
13083;SDS011;6608;48.790;9.198;2022-07-29T07:50:38;178.57;;;76.17;;
13083;SDS011;6608;48.790;9.198;2022-07-29T07:53:04;175.73;;;72.30;;
13083;SDS011;6608;48.790;9.198;2022-07-29T07:55:31;180.30;;;78.00;;
13083;SDS011;6608;48.790;9.198;2022-07-29T07:57:57;181.93;;;76.83;;
13083;SDS011;6608;48.790;9.198;2022-07-29T08:00:23;179.80;;;74.80;;
13083;SDS011;6608;48.790;9.198;2022-07-29T08:02:50;178.07;;;73.30;;
13083;SDS011;6608;48.790;9.198;2022-07-29T08:05:18;179.33;;;72.53;;
13083;SDS011;6608;48.790;9.198;2022-07-29T08:07:44;175.30;;;73.97;;
13083;SDS011;6608;48.790;9.198;2022-07-29T08:10:11;177.50;;;74.73;;
13083;SDS011;6608;48.790;9.198;2022-07-29T08:12:37;174.97;;;73.47;;
13083;SDS011;6608;48.790;9.198;2022-07-29T08:15:04;181.37;;;73.07;;
13083;SDS011;6608;48.790;9.198;2022-07-29T08:17:32;173.83;;;73.43;;
13083;SDS011;6608;48.790;9.198;2022-07-29T08:19:59;174.70;;;73.63;;
13083;SDS011;6608;48.790;9.198;2022-07-29T08:22:26;177.70;;;75.03;;
13083;SDS011;6608;48.790;9.198;2022-07-29T08:24:53;179.47;;;73.27;;
13083;SDS011;6608;48.790;9.198;2022-07-29T08:27:21;175.03;;;75.37;;
13083;SDS011;6608;48.790;9.198;2022-07-29T08:29:47;176.47;;;73.93;;
13083;SDS011;6608;48.790;9.198;2022-07-29T08:32:14;175.97;;;74.87;;
13083;SDS011;6608;48.790;9.198;2022-07-29T08:34:41;175.67;;;74.53;;
13083;SDS011;6608;48.790;9.198;2022-07-29T08:37:07;177.50;;;74.77;;
13083;SDS011;6608;48.790;9.198;2022-07-29T08:39:35;176.03;;;74.33;;
13083;SDS011;6608;48.790;9.198;2022-07-29T08:42:01;175.13;;;74.93;;
13083;SDS011;6608;48.790;9.198;2022-07-29T08:44:28;178.70;;;75.03;;
13083;SDS011;6608;48.790;9.198;2022-07-29T08:46:54;176.27;;;73.83;;
13083;SDS011;6608;48.790;9.198;2022-07-29T08:49:21;176.73;;;74.50;;
13083;SDS011;6608;48.790;9.198;2022-07-29T08:51:47;178.40;;;75.27;;
13083;SDS011;6608;48.790;9.198;2022-07-29T08:54:16;177.07;;;76.13;;
13083;SDS011;6608;48.790;9.198;2022-07-29T08:56:44;175.57;;;73.63;;
13083;SDS011;6608;48.790;9.198;2022-07-29T08:59:11;176.87;;;75.07;;
13083;SDS011;6608;48.790;9.198;2022-07-29T09:01:37;176.40;;;75.03;;
13083;SDS011;6608;48.790;9.198;2022-07-29T09:04:05;176.77;;;74.43;;
13083;SDS011;6608;48.790;9.198;2022-07-29T09:06:34;176.80;;;74.90;;
13083;SDS011;6608;48.790;9.198;2022-07-29T09:09:03;179.17;;;75.87;;
13083;SDS011;6608;48.790;9.198;2022-07-29T09:11:29;178.80;;;75.00;;
13083;SDS011;6608;48.790;9.198;2022-07-29T09:13:57;178.17;;;75.27;;
13083;SDS011;6608;48.790;9.198;2022-07-29T09:16:23;176.30;;;74.87;;
13083;SDS011;6608;48.790;9.198;2022-07-29T09:18:50;176.53;;;76.33;;
13083;SDS011;6608;48.790;9.198;2022-07-29T09:21:17;179.43;;;76.73;;
13083;SDS011;6608;48.790;9.198;2022-07-29T09:24:02;180.43;;;77.73;;
13083;SDS011;6608;48.790;9.198;2022-07-29T09:26:28;178.90;;;77.47;;
13083;SDS011;6608;48.790;9.198;2022-07-29T09:28:57;175.23;;;76.30;;
13083;SDS011;6608;48.790;9.198;2022-07-29T09:31:27;176.63;;;76.17;;
13083;SDS011;6608;48.790;9.198;2022-07-29T09:33:57;176.20;;;76.13;;
13083;SDS011;6608;48.790;9.198;2022-07-29T09:36:25;179.43;;;77.17;;
13083;SDS011;6608;48.790;9.198;2022-07-29T09:38:56;175.60;;;76.10;;
13083;SDS011;6608;48.790;9.198;2022-07-29T09:41:23;175.17;;;76.67;;
13083;SDS011;6608;48.790;9.198;2022-07-29T09:43:53;175.17;;;75.57;;
13083;SDS011;6608;48.790;9.198;2022-07-29T09:46:20;175.70;;;76.97;;
13083;SDS011;6608;48.790;9.198;2022-07-29T09:49:04;175.93;;;77.67;;
13083;SDS011;6608;48.790;9.198;2022-07-29T09:51:31;178.10;;;77.63;;
13083;SDS011;6608;48.790;9.198;2022-07-29T09:53:57;178.50;;;77.70;;
13083;SDS011;6608;48.790;9.198;2022-07-29T09:56:37;181.63;;;78.70;;
13083;SDS011;6608;48.790;9.198;2022-07-29T09:59:05;182.70;;;79.13;;
13083;SDS011;6608;48.790;9.198;2022-07-29T10:01:32;182.93;;;79.17;;
13083;SDS011;6608;48.790;9.198;2022-07-29T10:03:59;183.20;;;79.23;;
13083;SDS011;6608;48.790;9.198;2022-07-29T10:06:26;182.20;;;77.90;;
13083;SDS011;6608;48.790;9.198;2022-07-29T10:08:53;181.27;;;77.90;;
13083;SDS011;6608;48.790;9.198;2022-07-29T10:11:19;179.40;;;77.17;;
13083;SDS011;6608;48.790;9.198;2022-07-29T10:13:47;177.60;;;77.57;;
13083;SDS011;6608;48.790;9.198;2022-07-29T10:16:14;181.70;;;78.53;;
13083;SDS011;6608;48.790;9.198;2022-07-29T10:18:43;182.30;;;79.73;;
13083;SDS011;6608;48.790;9.198;2022-07-29T10:21:09;178.17;;;78.00;;
13083;SDS011;6608;48.790;9.198;2022-07-29T10:23:36;180.67;;;78.87;;
13083;SDS011;6608;48.790;9.198;2022-07-29T10:26:03;183.07;;;79.03;;
13083;SDS011;6608;48.790;9.198;2022-07-29T10:28:29;179.73;;;78.23;;
13083;SDS011;6608;48.790;9.198;2022-07-29T10:30:58;184.73;;;79.50;;
13083;SDS011;6608;48.790;9.198;2022-07-29T10:33:30;179.03;;;78.10;;
13083;SDS011;6608;48.790;9.198;2022-07-29T10:36:04;181.47;;;78.10;;
13083;SDS011;6608;48.790;9.198;2022-07-29T10:38:37;184.97;;;78.17;;
13083;SDS011;6608;48.790;9.198;2022-07-29T10:41:11;191.13;;;82.53;;
13083;SDS011;6608;48.790;9.198;2022-07-29T10:43:55;182.50;;;76.47;;
13083;SDS011;6608;48.790;9.198;2022-07-29T10:46:22;184.63;;;76.93;;
13083;SDS011;6608;48.790;9.198;2022-07-29T11:10:43;191.37;;;78.13;;
13083;SDS011;6608;48.790;9.198;2022-07-29T11:13:10;190.43;;;77.50;;
13083;SDS011;6608;48.790;9.198;2022-07-29T11:15:51;192.60;;;78.67;;
13083;SDS011;6608;48.790;9.198;2022-07-29T11:18:18;197.90;;;79.50;;
13083;SDS011;6608;48.790;9.198;2022-07-29T11:20:45;196.27;;;77.63;;
13083;SDS011;6608;48.790;9.198;2022-07-29T11:23:19;192.07;;;75.87;;
13083;SDS011;6608;48.790;9.198;2022-07-29T11:25:47;193.23;;;76.23;;
13083;SDS011;6608;48.790;9.198;2022-07-29T11:28:33;192.10;;;76.60;;
13083;SDS011;6608;48.790;9.198;2022-07-29T11:31:01;194.70;;;78.63;;
13083;SDS011;6608;48.790;9.198;2022-07-29T11:33:29;190.30;;;78.43;;
13083;SDS011;6608;48.790;9.198;2022-07-29T11:36:08;191.47;;;77.10;;
13083;SDS011;6608;48.790;9.198;2022-07-29T11:38:35;190.27;;;74.73;;
13083;SDS011;6608;48.790;9.198;2022-07-29T11:41:22;188.80;;;75.17;;
13083;SDS011;6608;48.790;9.198;2022-07-29T11:43:49;189.27;;;75.23;;
13083;SDS011;6608;48.790;9.198;2022-07-29T11:46:17;188.93;;;75.77;;
13083;SDS011;6608;48.790;9.198;2022-07-29T11:48:44;190.93;;;77.13;;
13083;SDS011;6608;48.790;9.198;2022-07-29T11:51:10;184.10;;;73.27;;
13083;SDS011;6608;48.790;9.198;2022-07-29T11:53:37;186.07;;;73.13;;
13083;SDS011;6608;48.790;9.198;2022-07-29T11:56:05;182.73;;;74.03;;
13083;SDS011;6608;48.790;9.198;2022-07-29T11:58:35;185.70;;;75.07;;
13083;SDS011;6608;48.790;9.198;2022-07-29T12:01:02;184.60;;;75.23;;
13083;SDS011;6608;48.790;9.198;2022-07-29T12:03:29;192.57;;;79.50;;
13083;SDS011;6608;48.790;9.198;2022-07-29T12:05:55;185.00;;;74.80;;
13083;SDS011;6608;48.790;9.198;2022-07-29T12:08:22;186.83;;;75.50;;
13083;SDS011;6608;48.790;9.198;2022-07-29T12:10:51;187.73;;;78.33;;
13083;SDS011;6608;48.790;9.198;2022-07-29T12:13:18;188.13;;;77.17;;
13083;SDS011;6608;48.790;9.198;2022-07-29T12:15:52;186.57;;;76.43;;
13083;SDS011;6608;48.790;9.198;2022-07-29T12:18:19;185.40;;;75.70;;
13083;SDS011;6608;48.790;9.198;2022-07-29T12:20:46;188.83;;;76.17;;
13083;SDS011;6608;48.790;9.198;2022-07-29T12:23:14;184.60;;;76.60;;
13083;SDS011;6608;48.790;9.198;2022-07-29T12:25:41;183.13;;;75.17;;
13083;SDS011;6608;48.790;9.198;2022-07-29T12:28:09;180.97;;;74.77;;
13083;SDS011;6608;48.790;9.198;2022-07-29T12:30:36;184.43;;;74.67;;
13083;SDS011;6608;48.790;9.198;2022-07-29T12:33:11;180.30;;;72.30;;
13083;SDS011;6608;48.790;9.198;2022-07-29T12:35:38;181.97;;;74.87;;
13083;SDS011;6608;48.790;9.198;2022-07-29T12:38:05;178.47;;;72.17;;
13083;SDS011;6608;48.790;9.198;2022-07-29T12:40:32;179.63;;;73.60;;
13083;SDS011;6608;48.790;9.198;2022-07-29T12:43:05;179.67;;;73.17;;
13083;SDS011;6608;48.790;9.198;2022-07-29T12:45:32;181.73;;;74.20;;
13083;SDS011;6608;48.790;9.198;2022-07-29T12:47:58;181.97;;;74.57;;
13083;SDS011;6608;48.790;9.198;2022-07-29T12:50:26;177.87;;;72.83;;
13083;SDS011;6608;48.790;9.198;2022-07-29T12:52:53;182.90;;;74.70;;
13083;SDS011;6608;48.790;9.198;2022-07-29T12:58:01;184.60;;;74.17;;
13083;SDS011;6608;48.790;9.198;2022-07-29T13:00:27;178.60;;;74.67;;
13083;SDS011;6608;48.790;9.198;2022-07-29T13:02:54;184.23;;;77.27;;
13083;SDS011;6608;48.790;9.198;2022-07-29T13:05:21;181.23;;;73.83;;
13083;SDS011;6608;48.790;9.198;2022-07-29T13:07:49;179.70;;;74.47;;
13083;SDS011;6608;48.790;9.198;2022-07-29T13:10:16;178.70;;;74.33;;
13083;SDS011;6608;48.790;9.198;2022-07-29T13:13:01;180.77;;;74.93;;
13083;SDS011;6608;48.790;9.198;2022-07-29T13:15:27;179.47;;;74.30;;
13083;SDS011;6608;48.790;9.198;2022-07-29T13:17:54;182.00;;;75.10;;
13083;SDS011;6608;48.790;9.198;2022-07-29T13:20:25;179.23;;;74.17;;
13083;SDS011;6608;48.790;9.198;2022-07-29T13:22:55;178.63;;;72.97;;
13083;SDS011;6608;48.790;9.198;2022-07-29T13:25:26;180.17;;;74.03;;
13083;SDS011;6608;48.790;9.198;2022-07-29T13:27:52;180.50;;;73.83;;
13083;SDS011;6608;48.790;9.198;2022-07-29T13:30:20;178.20;;;73.53;;
13083;SDS011;6608;48.790;9.198;2022-07-29T13:32:46;178.57;;;73.33;;
13083;SDS011;6608;48.790;9.198;2022-07-29T13:35:13;183.93;;;76.10;;
13083;SDS011;6608;48.790;9.198;2022-07-29T13:37:39;188.27;;;75.90;;
13083;SDS011;6608;48.790;9.198;2022-07-29T13:40:07;182.10;;;74.87;;
13083;SDS011;6608;48.790;9.198;2022-07-29T13:42:34;182.83;;;75.40;;
13083;SDS011;6608;48.790;9.198;2022-07-29T13:45:01;180.87;;;74.80;;
13083;SDS011;6608;48.790;9.198;2022-07-29T13:47:27;185.83;;;74.00;;
13083;SDS011;6608;48.790;9.198;2022-07-29T13:49:54;182.23;;;74.63;;
13083;SDS011;6608;48.790;9.198;2022-07-29T13:52:21;184.70;;;74.93;;
13083;SDS011;6608;48.790;9.198;2022-07-29T13:54:47;181.10;;;74.80;;
13083;SDS011;6608;48.790;9.198;2022-07-29T13:57:15;182.77;;;74.13;;
13083;SDS011;6608;48.790;9.198;2022-07-29T13:59:42;181.93;;;76.27;;
13083;SDS011;6608;48.790;9.198;2022-07-29T14:02:09;181.07;;;75.40;;
13083;SDS011;6608;48.790;9.198;2022-07-29T14:04:36;185.53;;;75.73;;
13083;SDS011;6608;48.790;9.198;2022-07-29T14:07:02;182.17;;;76.63;;
13083;SDS011;6608;48.790;9.198;2022-07-29T14:09:28;181.87;;;76.87;;
13083;SDS011;6608;48.790;9.198;2022-07-29T14:11:55;184.73;;;78.37;;
13083;SDS011;6608;48.790;9.198;2022-07-29T14:14:23;182.57;;;78.03;;
13083;SDS011;6608;48.790;9.198;2022-07-29T14:16:51;183.00;;;73.97;;
13083;SDS011;6608;48.790;9.198;2022-07-29T14:19:18;183.13;;;77.07;;
13083;SDS011;6608;48.790;9.198;2022-07-29T14:21:44;180.93;;;76.40;;
13083;SDS011;6608;48.790;9.198;2022-07-29T14:24:11;182.27;;;76.47;;
13083;SDS011;6608;48.790;9.198;2022-07-29T14:26:37;178.93;;;75.33;;
13083;SDS011;6608;48.790;9.198;2022-07-29T14:29:04;183.60;;;74.83;;
13083;SDS011;6608;48.790;9.198;2022-07-29T14:31:31;183.60;;;78.13;;
13083;SDS011;6608;48.790;9.198;2022-07-29T14:33:58;179.37;;;76.33;;
13083;SDS011;6608;48.790;9.198;2022-07-29T14:36:24;179.60;;;76.00;;
13083;SDS011;6608;48.790;9.198;2022-07-29T14:38:52;180.33;;;77.03;;
13083;SDS011;6608;48.790;9.198;2022-07-29T14:41:18;182.23;;;77.33;;
13083;SDS011;6608;48.790;9.198;2022-07-29T14:43:46;184.10;;;78.97;;
13083;SDS011;6608;48.790;9.198;2022-07-29T14:46:13;184.67;;;79.07;;
13083;SDS011;6608;48.790;9.198;2022-07-29T14:48:41;180.13;;;76.77;;